Terminal Aerodrome Forecast
Issued by NWS

Current Version | Previous Version | Text Only | Print | Product List | Glossary On
Versions: 1 2 3 4 5 6 7 8 9 10 11 12 13 14 15 16 17 18
000
FTUS41 KILN 220800 AAA
TAFLUK
TAF AMD
KLUK 220803Z 2208/2306 34007KT P6SM OVC040
     FM221000 35008KT P6SM BKN020
     FM221300 35008KT P6SM BKN030
     FM221800 36006KT P6SM SCT040
     FM230000 00000KT P6SM SKC=

USA.gov is the U.S. government's official web portal to all federal, state and local government web resources and services.